PAAQ METAR and TAF weather

Enter ICAO airport designator
Station Type Date Time Source
PAAQ METAR 2019/08/22 15:53 UTC NOAA

PAAQ 221553Z AUTO 36010KT 8SM CLR 08/03 A2967 RMK AO2 SLP049 T00780028 TSNO


Station Type Date Time Source
PAAQ Decoded METAR 2019/08/22 15:53 UTC NOAA

Station name not available
Aug 22, 2019 - 11:53 AM EDT / 2019.08.22 1553 UTC
Wind: from the N (360 degrees) at 12 MPH (10 KT):0
Visibility: 8 mile(s):0
Sky conditions: clear
Temperature: 46.0 F (7.8 C)
Dew Point: 37.0 F (2.8 C)
Relative Humidity: 70%
Pressure (altimeter): 29.67 in. Hg (1004 hPa)
ob: PAAQ 221553Z AUTO 36010KT 8SM CLR 08/03 A2967 RMK AO2 SLP049 T00780028 TSNO
cycle: 16

Station Type Date Time Source
PAAQ TAF 2019/08/22 12:24 UTC NOAA

TAF PAAQ 221121Z 2212/2312 02008KT P6SM SCT080

Example: see airport list